sensor_id;sensor_type;location;lat;lon;timestamp;temperature;humidity
1996;DHT22;38556;47.068;15.408;2022-12-18T00:02:27;0.00;99.90
1996;DHT22;38556;47.068;15.408;2022-12-18T00:04:55;0.00;99.90
1996;DHT22;38556;47.068;15.408;2022-12-18T00:07:22;-0.10;99.90
1996;DHT22;38556;47.068;15.408;2022-12-18T00:09:49;0.00;99.90
1996;DHT22;38556;47.068;15.408;2022-12-18T00:12:16;0.00;99.90
1996;DHT22;38556;47.068;15.408;2022-12-18T00:14:43;-0.10;99.90
1996;DHT22;38556;47.068;15.408;2022-12-18T00:17:11;-0.10;99.90
1996;DHT22;38556;47.068;15.408;2022-12-18T00:19:39;-0.10;99.90
1996;DHT22;38556;47.068;15.408;2022-12-18T00:22:07;-0.20;99.90
1996;DHT22;38556;47.068;15.408;2022-12-18T00:24:34;-0.20;99.90
1996;DHT22;38556;47.068;15.408;2022-12-18T00:27:02;-0.20;99.90
1996;DHT22;38556;47.068;15.408;2022-12-18T00:29:29;-0.20;99.90
1996;DHT22;38556;47.068;15.408;2022-12-18T00:31:57;-0.20;99.90
1996;DHT22;38556;47.068;15.408;2022-12-18T00:34:24;-0.20;99.90
1996;DHT22;38556;47.068;15.408;2022-12-18T00:36:53;-0.30;99.90
1996;DHT22;38556;47.068;15.408;2022-12-18T00:39:20;-0.20;99.90
1996;DHT22;38556;47.068;15.408;2022-12-18T00:41:47;-0.20;99.90
1996;DHT22;38556;47.068;15.408;2022-12-18T00:44:32;-0.30;99.90
1996;DHT22;38556;47.068;15.408;2022-12-18T00:46:59;-0.30;99.90
1996;DHT22;38556;47.068;15.408;2022-12-18T00:49:26;-0.40;99.90
1996;DHT22;38556;47.068;15.408;2022-12-18T00:51:55;-0.40;99.90
1996;DHT22;38556;47.068;15.408;2022-12-18T00:54:22;-0.30;99.90
1996;DHT22;38556;47.068;15.408;2022-12-18T00:56:50;-0.30;99.90
1996;DHT22;38556;47.068;15.408;2022-12-18T00:59:18;-0.30;99.90
1996;DHT22;38556;47.068;15.408;2022-12-18T01:01:45;-0.30;99.90
1996;DHT22;38556;47.068;15.408;2022-12-18T01:04:14;-0.40;99.90
1996;DHT22;38556;47.068;15.408;2022-12-18T01:09:11;-0.40;99.90
1996;DHT22;38556;47.068;15.408;2022-12-18T01:11:38;-0.40;99.90
1996;DHT22;38556;47.068;15.408;2022-12-18T01:14:06;-0.40;99.90
1996;DHT22;38556;47.068;15.408;2022-12-18T01:16:33;-0.40;99.90
1996;DHT22;38556;47.068;15.408;2022-12-18T01:19:00;-0.50;99.90
1996;DHT22;38556;47.068;15.408;2022-12-18T01:21:28;-0.40;99.90
1996;DHT22;38556;47.068;15.408;2022-12-18T01:23:56;-0.40;99.90
1996;DHT22;38556;47.068;15.408;2022-12-18T01:26:26;-0.50;99.90
1996;DHT22;38556;47.068;15.408;2022-12-18T01:28:56;-0.50;99.90
1996;DHT22;38556;47.068;15.408;2022-12-18T01:31:25;-0.60;99.90
1996;DHT22;38556;47.068;15.408;2022-12-18T01:33:53;-0.70;99.90
1996;DHT22;38556;47.068;15.408;2022-12-18T01:36:22;-0.70;99.90
1996;DHT22;38556;47.068;15.408;2022-12-18T01:38:51;-0.70;99.90
1996;DHT22;38556;47.068;15.408;2022-12-18T01:41:22;-0.70;99.90
1996;DHT22;38556;47.068;15.408;2022-12-18T01:43:53;-0.70;99.90
1996;DHT22;38556;47.068;15.408;2022-12-18T01:46:22;-0.70;99.90
1996;DHT22;38556;47.068;15.408;2022-12-18T01:48:53;-0.70;99.90
1996;DHT22;38556;47.068;15.408;2022-12-18T01:51:21;-0.60;99.90
1996;DHT22;38556;47.068;15.408;2022-12-18T01:53:49;-0.70;99.90
1996;DHT22;38556;47.068;15.408;2022-12-18T01:56:18;-0.60;99.90
1996;DHT22;38556;47.068;15.408;2022-12-18T01:58:53;-0.60;99.90
1996;DHT22;38556;47.068;15.408;2022-12-18T02:01:22;-0.60;99.90
1996;DHT22;38556;47.068;15.408;2022-12-18T02:03:51;-0.60;99.90
1996;DHT22;38556;47.068;15.408;2022-12-18T02:06:22;-0.70;99.90
1996;DHT22;38556;47.068;15.408;2022-12-18T02:09:01;-0.70;99.90
1996;DHT22;38556;47.068;15.408;2022-12-18T02:11:39;-0.70;99.90
1996;DHT22;38556;47.068;15.408;2022-12-18T02:14:21;-0.80;99.90
1996;DHT22;38556;47.068;15.408;2022-12-18T02:16:55;-0.90;99.90
1996;DHT22;38556;47.068;15.408;2022-12-18T02:19:47;-1.00;99.90
1996;DHT22;38556;47.068;15.408;2022-12-18T02:22:26;-1.00;99.90
1996;DHT22;38556;47.068;15.408;2022-12-18T02:27:34;-1.00;99.90
1996;DHT22;38556;47.068;15.408;2022-12-18T02:30:06;-1.00;99.90
1996;DHT22;38556;47.068;15.408;2022-12-18T02:32:36;-1.00;99.90
1996;DHT22;38556;47.068;15.408;2022-12-18T02:35:07;-0.90;99.90
1996;DHT22;38556;47.068;15.408;2022-12-18T02:37:36;-0.90;99.90
1996;DHT22;38556;47.068;15.408;2022-12-18T02:40:07;-1.00;99.90
1996;DHT22;38556;47.068;15.408;2022-12-18T02:45:05;-0.90;99.90
1996;DHT22;38556;47.068;15.408;2022-12-18T02:47:36;-1.00;99.90
1996;DHT22;38556;47.068;15.408;2022-12-18T02:52:39;-0.90;99.90
1996;DHT22;38556;47.068;15.408;2022-12-18T02:55:20;-0.90;99.90
1996;DHT22;38556;47.068;15.408;2022-12-18T02:57:53;-0.90;99.90
1996;DHT22;38556;47.068;15.408;2022-12-18T03:00:24;-0.90;99.90
1996;DHT22;38556;47.068;15.408;2022-12-18T03:02:57;-0.90;99.90
1996;DHT22;38556;47.068;15.408;2022-12-18T03:05:31;-0.90;99.90
1996;DHT22;38556;47.068;15.408;2022-12-18T03:08:05;-0.90;99.90
1996;DHT22;38556;47.068;15.408;2022-12-18T03:10:37;-0.90;99.90
1996;DHT22;38556;47.068;15.408;2022-12-18T03:13:12;-0.90;99.90
1996;DHT22;38556;47.068;15.408;2022-12-18T03:15:44;-0.90;99.90
1996;DHT22;38556;47.068;15.408;2022-12-18T03:18:15;-0.90;99.90
1996;DHT22;38556;47.068;15.408;2022-12-18T03:20:44;-0.90;99.90
1996;DHT22;38556;47.068;15.408;2022-12-18T03:25:44;-0.90;99.90
1996;DHT22;38556;47.068;15.408;2022-12-18T03:28:15;-1.00;99.90
1996;DHT22;38556;47.068;15.408;2022-12-18T03:30:45;-0.90;99.90
1996;DHT22;38556;47.068;15.408;2022-12-18T03:33:16;-1.00;99.90
1996;DHT22;38556;47.068;15.408;2022-12-18T03:35:45;-0.90;99.90
1996;DHT22;38556;47.068;15.408;2022-12-18T03:38:14;-1.10;99.90
1996;DHT22;38556;47.068;15.408;2022-12-18T03:40:46;-1.20;99.90
1996;DHT22;38556;47.068;15.408;2022-12-18T03:43:29;-2.90;99.90
1996;DHT22;38556;47.068;15.408;2022-12-18T03:46:03;-1.80;99.90
1996;DHT22;38556;47.068;15.408;2022-12-18T03:48:33;-1.80;99.90
1996;DHT22;38556;47.068;15.408;2022-12-18T03:51:07;-1.70;99.90
1996;DHT22;38556;47.068;15.408;2022-12-18T03:53:41;-1.80;99.90
1996;DHT22;38556;47.068;15.408;2022-12-18T03:56:11;-1.80;99.90
1996;DHT22;38556;47.068;15.408;2022-12-18T03:58:43;-1.80;99.90
1996;DHT22;38556;47.068;15.408;2022-12-18T04:01:12;-1.70;99.90
1996;DHT22;38556;47.068;15.408;2022-12-18T04:03:41;-1.60;99.90
1996;DHT22;38556;47.068;15.408;2022-12-18T04:06:10;-1.60;99.90
1996;DHT22;38556;47.068;15.408;2022-12-18T04:08:38;-1.60;99.90
1996;DHT22;38556;47.068;15.408;2022-12-18T04:11:06;-1.60;99.90
1996;DHT22;38556;47.068;15.408;2022-12-18T04:13:36;-1.50;99.90
1996;DHT22;38556;47.068;15.408;2022-12-18T04:16:05;-1.60;99.90
1996;DHT22;38556;47.068;15.408;2022-12-18T04:18:33;-1.60;99.90
1996;DHT22;38556;47.068;15.408;2022-12-18T04:28:24;-1.40;99.90
1996;DHT22;38556;47.068;15.408;2022-12-18T04:30:51;-1.40;99.90
1996;DHT22;38556;47.068;15.408;2022-12-18T04:33:20;-1.40;99.90
1996;DHT22;38556;47.068;15.408;2022-12-18T04:35:47;-1.40;99.90
1996;DHT22;38556;47.068;15.408;2022-12-18T04:38:14;-1.30;99.90
1996;DHT22;38556;47.068;15.408;2022-12-18T04:40:41;-1.30;99.90
1996;DHT22;38556;47.068;15.408;2022-12-18T04:43:09;-1.30;99.90
1996;DHT22;38556;47.068;15.408;2022-12-18T04:48:04;-1.30;99.90
1996;DHT22;38556;47.068;15.408;2022-12-18T04:50:33;-1.40;99.90
1996;DHT22;38556;47.068;15.408;2022-12-18T04:53:00;-1.40;99.90
1996;DHT22;38556;47.068;15.408;2022-12-18T04:55:27;-1.40;99.90
1996;DHT22;38556;47.068;15.408;2022-12-18T04:57:55;-1.40;99.90
1996;DHT22;38556;47.068;15.408;2022-12-18T05:00:22;-1.40;99.90
1996;DHT22;38556;47.068;15.408;2022-12-18T05:02:50;-1.50;99.90
1996;DHT22;38556;47.068;15.408;2022-12-18T05:05:17;-1.50;99.90
1996;DHT22;38556;47.068;15.408;2022-12-18T05:07:46;-1.50;99.90
1996;DHT22;38556;47.068;15.408;2022-12-18T05:12:41;-1.50;99.90
1996;DHT22;38556;47.068;15.408;2022-12-18T05:15:22;-1.50;99.90
1996;DHT22;38556;47.068;15.408;2022-12-18T05:17:50;-1.50;99.90
1996;DHT22;38556;47.068;15.408;2022-12-18T05:20:17;-1.50;99.90
1996;DHT22;38556;47.068;15.408;2022-12-18T05:22:46;-1.60;99.90
1996;DHT22;38556;47.068;15.408;2022-12-18T05:25:13;-1.70;99.90
1996;DHT22;38556;47.068;15.408;2022-12-18T05:27:40;-1.70;99.90
1996;DHT22;38556;47.068;15.408;2022-12-18T05:30:09;-1.70;99.90
1996;DHT22;38556;47.068;15.408;2022-12-18T05:32:36;-1.60;99.90
1996;DHT22;38556;47.068;15.408;2022-12-18T05:35:06;-1.60;99.90
1996;DHT22;38556;47.068;15.408;2022-12-18T05:37:34;-1.60;99.90
1996;DHT22;38556;47.068;15.408;2022-12-18T05:40:04;-1.50;99.90
1996;DHT22;38556;47.068;15.408;2022-12-18T05:42:31;-1.50;99.90
1996;DHT22;38556;47.068;15.408;2022-12-18T05:44:59;-1.50;99.90
1996;DHT22;38556;47.068;15.408;2022-12-18T05:47:26;-1.50;99.90
1996;DHT22;38556;47.068;15.408;2022-12-18T05:49:55;-1.50;99.90
1996;DHT22;38556;47.068;15.408;2022-12-18T05:52:22;-1.50;99.90
1996;DHT22;38556;47.068;15.408;2022-12-18T05:54:49;-1.50;99.90
1996;DHT22;38556;47.068;15.408;2022-12-18T05:57:18;-1.40;99.90
1996;DHT22;38556;47.068;15.408;2022-12-18T05:59:45;-1.40;99.90
1996;DHT22;38556;47.068;15.408;2022-12-18T06:02:13;-1.40;99.90
1996;DHT22;38556;47.068;15.408;2022-12-18T06:04:40;-1.40;99.90
1996;DHT22;38556;47.068;15.408;2022-12-18T06:07:07;-1.50;99.90
1996;DHT22;38556;47.068;15.408;2022-12-18T06:09:34;-1.80;99.90
1996;DHT22;38556;47.068;15.408;2022-12-18T06:12:02;-1.80;99.90
1996;DHT22;38556;47.068;15.408;2022-12-18T06:14:31;-1.80;99.90
1996;DHT22;38556;47.068;15.408;2022-12-18T06:16:58;-1.80;99.90
1996;DHT22;38556;47.068;15.408;2022-12-18T06:19:25;-1.80;99.90
1996;DHT22;38556;47.068;15.408;2022-12-18T06:21:52;-1.80;99.90
1996;DHT22;38556;47.068;15.408;2022-12-18T06:29:15;-1.70;99.90
1996;DHT22;38556;47.068;15.408;2022-12-18T06:31:44;-1.60;99.90
1996;DHT22;38556;47.068;15.408;2022-12-18T06:34:11;-1.50;99.90
1996;DHT22;38556;47.068;15.408;2022-12-18T06:36:38;-1.50;99.90
1996;DHT22;38556;47.068;15.408;2022-12-18T06:39:05;-1.50;99.90
1996;DHT22;38556;47.068;15.408;2022-12-18T06:41:33;-1.40;99.90
1996;DHT22;38556;47.068;15.408;2022-12-18T06:44:00;-1.40;99.90
1996;DHT22;38556;47.068;15.408;2022-12-18T06:46:28;-1.30;99.90
1996;DHT22;38556;47.068;15.408;2022-12-18T06:48:56;-1.40;99.90
1996;DHT22;38556;47.068;15.408;2022-12-18T06:51:25;-1.50;99.90
1996;DHT22;38556;47.068;15.408;2022-12-18T06:53:52;-1.60;99.90
1996;DHT22;38556;47.068;15.408;2022-12-18T06:56:19;-2.10;99.90
1996;DHT22;38556;47.068;15.408;2022-12-18T07:01:14;-2.20;99.90
1996;DHT22;38556;47.068;15.408;2022-12-18T07:03:41;-2.00;99.90
1996;DHT22;38556;47.068;15.408;2022-12-18T07:06:16;-1.80;99.90
1996;DHT22;38556;47.068;15.408;2022-12-18T07:08:43;-1.70;99.90
1996;DHT22;38556;47.068;15.408;2022-12-18T07:11:11;-1.60;99.90
1996;DHT22;38556;47.068;15.408;2022-12-18T07:13:38;-1.60;99.90
1996;DHT22;38556;47.068;15.408;2022-12-18T07:16:07;-1.40;99.90
1996;DHT22;38556;47.068;15.408;2022-12-18T07:21:04;-1.30;99.90
1996;DHT22;38556;47.068;15.408;2022-12-18T07:23:34;-1.20;99.90
1996;DHT22;38556;47.068;15.408;2022-12-18T07:26:02;-1.20;99.90
1996;DHT22;38556;47.068;15.408;2022-12-18T07:28:30;-1.30;99.90
1996;DHT22;38556;47.068;15.408;2022-12-18T07:33:26;-1.20;99.90
1996;DHT22;38556;47.068;15.408;2022-12-18T07:35:53;-1.20;99.90
1996;DHT22;38556;47.068;15.408;2022-12-18T07:40:49;-1.10;99.90
1996;DHT22;38556;47.068;15.408;2022-12-18T07:45:45;-1.00;99.90
1996;DHT22;38556;47.068;15.408;2022-12-18T07:48:12;-1.00;99.90
1996;DHT22;38556;47.068;15.408;2022-12-18T07:50:39;-1.00;99.90
1996;DHT22;38556;47.068;15.408;2022-12-18T07:53:07;-0.90;99.90
1996;DHT22;38556;47.068;15.408;2022-12-18T07:55:34;-0.80;99.90
1996;DHT22;38556;47.068;15.408;2022-12-18T07:58:04;-0.80;99.90
1996;DHT22;38556;47.068;15.408;2022-12-18T08:00:31;-0.70;99.90
1996;DHT22;38556;47.068;15.408;2022-12-18T08:02:58;-0.70;99.90
1996;DHT22;38556;47.068;15.408;2022-12-18T08:05:27;-0.60;99.90
1996;DHT22;38556;47.068;15.408;2022-12-18T08:07:54;-0.60;99.90
1996;DHT22;38556;47.068;15.408;2022-12-18T08:10:22;-0.60;99.90
1996;DHT22;38556;47.068;15.408;2022-12-18T08:12:50;-0.40;99.90
1996;DHT22;38556;47.068;15.408;2022-12-18T08:15:19;-0.40;99.90
1996;DHT22;38556;47.068;15.408;2022-12-18T08:20:15;0.10;99.90
1996;DHT22;38556;47.068;15.408;2022-12-18T08:22:44;0.20;99.90
1996;DHT22;38556;47.068;15.408;2022-12-18T08:25:11;0.20;99.90
1996;DHT22;38556;47.068;15.408;2022-12-18T08:27:39;0.30;99.90
1996;DHT22;38556;47.068;15.408;2022-12-18T08:30:07;0.30;99.90
1996;DHT22;38556;47.068;15.408;2022-12-18T08:32:36;0.30;99.90
1996;DHT22;38556;47.068;15.408;2022-12-18T08:35:04;0.30;99.90
1996;DHT22;38556;47.068;15.408;2022-12-18T08:37:31;0.30;99.90
1996;DHT22;38556;47.068;15.408;2022-12-18T08:42:27;0.30;99.90
1996;DHT22;38556;47.068;15.408;2022-12-18T08:45:12;0.30;99.90
1996;DHT22;38556;47.068;15.408;2022-12-18T08:47:41;0.40;99.90
1996;DHT22;38556;47.068;15.408;2022-12-18T08:50:09;0.30;99.90
1996;DHT22;38556;47.068;15.408;2022-12-18T08:55:06;0.50;99.90
1996;DHT22;38556;47.068;15.408;2022-12-18T08:57:34;0.40;99.90
1996;DHT22;38556;47.068;15.408;2022-12-18T09:00:02;0.30;99.90
1996;DHT22;38556;47.068;15.408;2022-12-18T09:02:29;0.40;99.90
1996;DHT22;38556;47.068;15.408;2022-12-18T09:04:58;0.50;99.90
1996;DHT22;38556;47.068;15.408;2022-12-18T09:07:25;0.60;99.90
1996;DHT22;38556;47.068;15.408;2022-12-18T09:09:53;0.50;99.90
1996;DHT22;38556;47.068;15.408;2022-12-18T09:12:21;0.60;99.90
1996;DHT22;38556;47.068;15.408;2022-12-18T09:14:48;0.40;99.90
1996;DHT22;38556;47.068;15.408;2022-12-18T09:17:16;0.40;99.90
1996;DHT22;38556;47.068;15.408;2022-12-18T09:22:12;0.50;99.90
1996;DHT22;38556;47.068;15.408;2022-12-18T09:27:09;0.70;99.90
1996;DHT22;38556;47.068;15.408;2022-12-18T09:32:05;0.50;99.90
1996;DHT22;38556;47.068;15.408;2022-12-18T09:34:33;0.60;99.90
1996;DHT22;38556;47.068;15.408;2022-12-18T09:37:00;0.80;99.90
1996;DHT22;38556;47.068;15.408;2022-12-18T09:39:29;0.70;99.90
1996;DHT22;38556;47.068;15.408;2022-12-18T09:41:58;0.70;99.90
1996;DHT22;38556;47.068;15.408;2022-12-18T09:44:27;0.60;99.90
1996;DHT22;38556;47.068;15.408;2022-12-18T09:49:34;0.80;99.90
1996;DHT22;38556;47.068;15.408;2022-12-18T09:52:08;0.90;99.90
1996;DHT22;38556;47.068;15.408;2022-12-18T09:54:39;0.90;99.90
1996;DHT22;38556;47.068;15.408;2022-12-18T09:57:13;1.00;99.90
1996;DHT22;38556;47.068;15.408;2022-12-18T09:59:44;0.90;99.90
1996;DHT22;38556;47.068;15.408;2022-12-18T10:02:15;0.90;99.90
1996;DHT22;38556;47.068;15.408;2022-12-18T10:04:43;0.80;99.90
1996;DHT22;38556;47.068;15.408;2022-12-18T10:07:17;0.70;99.90
1996;DHT22;38556;47.068;15.408;2022-12-18T10:09:53;0.50;99.90
1996;DHT22;38556;47.068;15.408;2022-12-18T10:12:30;0.50;99.90
1996;DHT22;38556;47.068;15.408;2022-12-18T10:15:04;0.60;99.90
1996;DHT22;38556;47.068;15.408;2022-12-18T10:17:40;0.60;99.90
1996;DHT22;38556;47.068;15.408;2022-12-18T10:20:13;0.40;99.90
1996;DHT22;38556;47.068;15.408;2022-12-18T10:22:52;0.50;99.90
1996;DHT22;38556;47.068;15.408;2022-12-18T10:25:24;0.50;99.90
1996;DHT22;38556;47.068;15.408;2022-12-18T10:27:57;0.50;99.90
1996;DHT22;38556;47.068;15.408;2022-12-18T10:30:25;0.60;99.90
1996;DHT22;38556;47.068;15.408;2022-12-18T10:32:53;0.60;99.90
1996;DHT22;38556;47.068;15.408;2022-12-18T10:35:24;0.60;99.90
1996;DHT22;38556;47.068;15.408;2022-12-18T10:38:01;0.50;99.90
1996;DHT22;38556;47.068;15.408;2022-12-18T10:40:30;0.40;99.90
1996;DHT22;38556;47.068;15.408;2022-12-18T10:43:10;0.40;99.90
1996;DHT22;38556;47.068;15.408;2022-12-18T10:45:37;0.30;99.90
1996;DHT22;38556;47.068;15.408;2022-12-18T10:48:18;0.50;99.90
1996;DHT22;38556;47.068;15.408;2022-12-18T10:50:48;0.60;99.90
1996;DHT22;38556;47.068;15.408;2022-12-18T10:53:21;0.10;99.90
1996;DHT22;38556;47.068;15.408;2022-12-18T10:55:52;0.30;99.90
1996;DHT22;38556;47.068;15.408;2022-12-18T10:58:24;0.50;99.90
1996;DHT22;38556;47.068;15.408;2022-12-18T11:01:11;0.60;99.90
1996;DHT22;38556;47.068;15.408;2022-12-18T11:03:42;0.50;99.90
1996;DHT22;38556;47.068;15.408;2022-12-18T11:06:12;0.50;99.90
1996;DHT22;38556;47.068;15.408;2022-12-18T11:08:41;0.50;99.90
1996;DHT22;38556;47.068;15.408;2022-12-18T11:11:20;0.30;99.90
1996;DHT22;38556;47.068;15.408;2022-12-18T11:14:02;0.40;99.90
1996;DHT22;38556;47.068;15.408;2022-12-18T11:16:33;0.70;99.90
1996;DHT22;38556;47.068;15.408;2022-12-18T11:19:17;0.60;99.90
1996;DHT22;38556;47.068;15.408;2022-12-18T11:21:47;0.60;99.90
1996;DHT22;38556;47.068;15.408;2022-12-18T11:24:25;0.50;99.90
1996;DHT22;38556;47.068;15.408;2022-12-18T11:26:57;0.70;99.90
1996;DHT22;38556;47.068;15.408;2022-12-18T11:29:30;0.70;99.90
1996;DHT22;38556;47.068;15.408;2022-12-18T11:32:31;0.60;99.90
1996;DHT22;38556;47.068;15.408;2022-12-18T11:35:03;0.80;99.90
1996;DHT22;38556;47.068;15.408;2022-12-18T11:37:32;0.60;99.90
1996;DHT22;38556;47.068;15.408;2022-12-18T11:40:02;0.40;99.90
1996;DHT22;38556;47.068;15.408;2022-12-18T11:42:38;0.60;99.90
1996;DHT22;38556;47.068;15.408;2022-12-18T11:45:23;0.50;99.90
1996;DHT22;38556;47.068;15.408;2022-12-18T11:47:56;0.60;99.90
1996;DHT22;38556;47.068;15.408;2022-12-18T11:50:28;0.70;99.90
1996;DHT22;38556;47.068;15.408;2022-12-18T11:52:57;0.80;99.90
1996;DHT22;38556;47.068;15.408;2022-12-18T11:55:29;0.80;99.90
1996;DHT22;38556;47.068;15.408;2022-12-18T11:58:07;0.80;99.90
1996;DHT22;38556;47.068;15.408;2022-12-18T12:00:40;0.90;99.90
1996;DHT22;38556;47.068;15.408;2022-12-18T12:03:44;0.80;99.90
1996;DHT22;38556;47.068;15.408;2022-12-18T12:06:20;0.60;99.90
1996;DHT22;38556;47.068;15.408;2022-12-18T12:09:03;0.50;99.90
1996;DHT22;38556;47.068;15.408;2022-12-18T12:11:39;0.50;99.90
1996;DHT22;38556;47.068;15.408;2022-12-18T12:14:23;0.60;99.90
1996;DHT22;38556;47.068;15.408;2022-12-18T12:16:57;0.70;99.90
1996;DHT22;38556;47.068;15.408;2022-12-18T12:19:35;0.60;99.90
1996;DHT22;38556;47.068;15.408;2022-12-18T12:22:10;0.70;99.90
1996;DHT22;38556;47.068;15.408;2022-12-18T12:24:51;0.80;99.90
1996;DHT22;38556;47.068;15.408;2022-12-18T12:27:30;5.50;99.90
1996;DHT22;38556;47.068;15.408;2022-12-18T12:30:06;0.60;99.90
1996;DHT22;38556;47.068;15.408;2022-12-18T12:32:46;0.20;99.90
1996;DHT22;38556;47.068;15.408;2022-12-18T12:35:25;0.30;99.90
1996;DHT22;38556;47.068;15.408;2022-12-18T12:38:05;0.50;99.90
1996;DHT22;38556;47.068;15.408;2022-12-18T12:40:36;0.30;99.90
1996;DHT22;38556;47.068;15.408;2022-12-18T12:43:19;0.40;99.90
1996;DHT22;38556;47.068;15.408;2022-12-18T12:45:51;0.50;99.90
1996;DHT22;38556;47.068;15.408;2022-12-18T12:48:31;0.50;99.90
1996;DHT22;38556;47.068;15.408;2022-12-18T12:51:01;0.20;99.90
1996;DHT22;38556;47.068;15.408;2022-12-18T12:53:35;0.20;99.90
1996;DHT22;38556;47.068;15.408;2022-12-18T12:56:05;0.20;99.90
1996;DHT22;38556;47.068;15.408;2022-12-18T12:58:37;0.20;99.90
1996;DHT22;38556;47.068;15.408;2022-12-18T13:01:17;0.30;99.90
1996;DHT22;38556;47.068;15.408;2022-12-18T13:03:54;0.40;99.90
1996;DHT22;38556;47.068;15.408;2022-12-18T13:06:30;0.40;99.90
1996;DHT22;38556;47.068;15.408;2022-12-18T13:09:01;0.50;99.90
1996;DHT22;38556;47.068;15.408;2022-12-18T13:11:35;0.50;99.90
1996;DHT22;38556;47.068;15.408;2022-12-18T13:14:28;0.60;99.90
1996;DHT22;38556;47.068;15.408;2022-12-18T13:17:24;0.60;99.90
1996;DHT22;38556;47.068;15.408;2022-12-18T13:20:05;0.60;99.90
1996;DHT22;38556;47.068;15.408;2022-12-18T13:27:55;0.70;99.90
1996;DHT22;38556;47.068;15.408;2022-12-18T13:33:40;0.70;99.90
1996;DHT22;38556;47.068;15.408;2022-12-18T13:36:28;0.30;99.90
1996;DHT22;38556;47.068;15.408;2022-12-18T13:42:31;0.10;99.90
1996;DHT22;38556;47.068;15.408;2022-12-18T13:45:39;0.20;99.90
1996;DHT22;38556;47.068;15.408;2022-12-18T13:48:18;-0.10;99.90
1996;DHT22;38556;47.068;15.408;2022-12-18T13:50:53;0.10;99.90
1996;DHT22;38556;47.068;15.408;2022-12-18T13:53:26;0.20;99.90
1996;DHT22;38556;47.068;15.408;2022-12-18T13:55:54;0.00;99.90
1996;DHT22;38556;47.068;15.408;2022-12-18T14:00:49;-0.10;99.90
1996;DHT22;38556;47.068;15.408;2022-12-18T14:03:20;0.00;99.90
1996;DHT22;38556;47.068;15.408;2022-12-18T14:06:01;0.20;99.90
1996;DHT22;38556;47.068;15.408;2022-12-18T14:08:36;0.10;99.90
1996;DHT22;38556;47.068;15.408;2022-12-18T14:11:05;0.10;99.90
1996;DHT22;38556;47.068;15.408;2022-12-18T14:13:36;0.10;99.90
1996;DHT22;38556;47.068;15.408;2022-12-18T14:16:05;0.20;99.90
1996;DHT22;38556;47.068;15.408;2022-12-18T14:18:41;0.20;99.90
1996;DHT22;38556;47.068;15.408;2022-12-18T14:21:20;0.20;99.90
1996;DHT22;38556;47.068;15.408;2022-12-18T14:26:22;0.30;99.90
1996;DHT22;38556;47.068;15.408;2022-12-18T14:28:51;-0.10;99.90
1996;DHT22;38556;47.068;15.408;2022-12-18T14:31:20;-0.10;99.90
1996;DHT22;38556;47.068;15.408;2022-12-18T14:33:50;0.00;99.90
1996;DHT22;38556;47.068;15.408;2022-12-18T14:36:21;0.00;99.90
1996;DHT22;38556;47.068;15.408;2022-12-18T14:38:50;0.00;99.90
1996;DHT22;38556;47.068;15.408;2022-12-18T14:41:20;0.00;99.90
1996;DHT22;38556;47.068;15.408;2022-12-18T14:43:49;0.10;99.90
1996;DHT22;38556;47.068;15.408;2022-12-18T14:46:28;0.10;99.90
1996;DHT22;38556;47.068;15.408;2022-12-18T14:48:58;0.00;99.90
1996;DHT22;38556;47.068;15.408;2022-12-18T14:51:28;-0.10;99.90
1996;DHT22;38556;47.068;15.408;2022-12-18T14:53:58;0.10;99.90
1996;DHT22;38556;47.068;15.408;2022-12-18T14:56:28;0.10;99.90
1996;DHT22;38556;47.068;15.408;2022-12-18T14:58:58;0.10;99.90
1996;DHT22;38556;47.068;15.408;2022-12-18T15:01:29;0.20;99.90
1996;DHT22;38556;47.068;15.408;2022-12-18T15:03:59;0.30;99.90
1996;DHT22;38556;47.068;15.408;2022-12-18T15:06:31;0.30;99.90
1996;DHT22;38556;47.068;15.408;2022-12-18T15:09:00;0.30;99.90
1996;DHT22;38556;47.068;15.408;2022-12-18T15:11:34;0.30;99.90
1996;DHT22;38556;47.068;15.408;2022-12-18T15:14:33;0.30;99.90
1996;DHT22;38556;47.068;15.408;2022-12-18T15:17:05;0.30;99.90
1996;DHT22;38556;47.068;15.408;2022-12-18T15:19:39;0.30;99.90
1996;DHT22;38556;47.068;15.408;2022-12-18T15:24:47;0.30;99.90
1996;DHT22;38556;47.068;15.408;2022-12-18T15:27:27;0.20;99.90
1996;DHT22;38556;47.068;15.408;2022-12-18T15:32:44;0.30;99.90
1996;DHT22;38556;47.068;15.408;2022-12-18T15:35:16;0.30;99.90
1996;DHT22;38556;47.068;15.408;2022-12-18T15:37:46;0.20;99.90
1996;DHT22;38556;47.068;15.408;2022-12-18T15:40:16;0.00;99.90
1996;DHT22;38556;47.068;15.408;2022-12-18T15:42:45;-0.10;99.90
1996;DHT22;38556;47.068;15.408;2022-12-18T15:45:31;-0.10;99.90
1996;DHT22;38556;47.068;15.408;2022-12-18T15:47:59;0.10;99.90
1996;DHT22;38556;47.068;15.408;2022-12-18T15:50:27;0.20;99.90
1996;DHT22;38556;47.068;15.408;2022-12-18T15:52:58;0.20;99.90
1996;DHT22;38556;47.068;15.408;2022-12-18T15:55:26;0.10;99.90
1996;DHT22;38556;47.068;15.408;2022-12-18T15:58:12;0.10;99.90
1996;DHT22;38556;47.068;15.408;2022-12-18T16:00:41;-0.20;99.90
1996;DHT22;38556;47.068;15.408;2022-12-18T16:05:39;-0.40;99.90
1996;DHT22;38556;47.068;15.408;2022-12-18T16:08:08;-0.60;99.90
1996;DHT22;38556;47.068;15.408;2022-12-18T16:13:08;-0.80;99.90
1996;DHT22;38556;47.068;15.408;2022-12-18T16:15:37;-0.80;99.90
1996;DHT22;38556;47.068;15.408;2022-12-18T16:18:05;-0.80;99.90
1996;DHT22;38556;47.068;15.408;2022-12-18T16:20:34;-0.70;99.90
1996;DHT22;38556;47.068;15.408;2022-12-18T16:23:02;-0.70;99.90
1996;DHT22;38556;47.068;15.408;2022-12-18T16:25:32;-0.70;99.90
1996;DHT22;38556;47.068;15.408;2022-12-18T16:28:00;-0.70;99.90
1996;DHT22;38556;47.068;15.408;2022-12-18T16:30:30;-0.80;99.90
1996;DHT22;38556;47.068;15.408;2022-12-18T16:32:59;-0.70;99.90
1996;DHT22;38556;47.068;15.408;2022-12-18T16:35:27;-0.70;99.90
1996;DHT22;38556;47.068;15.408;2022-12-18T16:37:55;-0.70;99.90
1996;DHT22;38556;47.068;15.408;2022-12-18T16:40:23;-0.70;99.90
1996;DHT22;38556;47.068;15.408;2022-12-18T16:42:52;-0.70;99.90
1996;DHT22;38556;47.068;15.408;2022-12-18T16:47:49;-0.70;99.90
1996;DHT22;38556;47.068;15.408;2022-12-18T16:50:18;-0.60;99.90
1996;DHT22;38556;47.068;15.408;2022-12-18T16:52:47;-0.80;99.90
1996;DHT22;38556;47.068;15.408;2022-12-18T16:55:16;-1.00;99.90
1996;DHT22;38556;47.068;15.408;2022-12-18T16:57:45;-1.10;99.90
1996;DHT22;38556;47.068;15.408;2022-12-18T17:00:16;-1.00;99.90
1996;DHT22;38556;47.068;15.408;2022-12-18T17:02:44;-0.80;99.90
1996;DHT22;38556;47.068;15.408;2022-12-18T17:05:13;-0.70;99.90
1996;DHT22;38556;47.068;15.408;2022-12-18T17:07:41;-0.60;99.90
1996;DHT22;38556;47.068;15.408;2022-12-18T17:10:10;-0.70;99.90
1996;DHT22;38556;47.068;15.408;2022-12-18T17:12:38;-0.70;99.90
1996;DHT22;38556;47.068;15.408;2022-12-18T17:15:08;-0.90;99.90
1996;DHT22;38556;47.068;15.408;2022-12-18T17:20:08;-0.70;99.90
1996;DHT22;38556;47.068;15.408;2022-12-18T17:30:01;-0.40;99.90
1996;DHT22;38556;47.068;15.408;2022-12-18T17:32:30;-0.30;99.90
1996;DHT22;38556;47.068;15.408;2022-12-18T17:35:00;-0.30;99.90
1996;DHT22;38556;47.068;15.408;2022-12-18T17:37:30;-0.20;99.90
1996;DHT22;38556;47.068;15.408;2022-12-18T17:40:00;-0.20;99.90
1996;DHT22;38556;47.068;15.408;2022-12-18T17:42:28;-0.10;99.90